createdAt,value
2019-02-11T00:00:33.687Z,6.25
2019-02-11T00:01:33.640Z,6.19
2019-02-11T00:02:33.630Z,6.20
2019-02-11T00:03:33.620Z,6.17
2019-02-11T00:04:33.610Z,6.14
2019-02-11T00:05:33.600Z,6.10
2019-02-11T00:06:33.614Z,5.84
2019-02-11T00:07:33.576Z,5.90
2019-02-11T00:08:33.560Z,5.88
2019-02-11T00:09:33.548Z,5.78
2019-02-11T00:10:33.544Z,5.77
2019-02-11T00:11:33.563Z,5.65
2019-02-11T00:12:33.535Z,5.66
2019-02-11T00:13:33.520Z,5.66
2019-02-11T00:14:33.506Z,5.63
2019-02-11T00:15:33.485Z,5.60
2019-02-11T00:16:33.473Z,5.69
2019-02-11T00:17:33.491Z,5.67
2019-02-11T00:18:33.470Z,5.62
2019-02-11T00:19:33.451Z,5.60
2019-02-11T00:20:33.447Z,5.60
2019-02-11T00:21:33.422Z,5.55
2019-02-11T00:22:33.437Z,5.58
2019-02-11T00:23:33.422Z,5.59
2019-02-11T00:24:33.400Z,5.49
2019-02-11T00:25:33.384Z,5.47
2019-02-11T00:26:33.368Z,5.48
2019-02-11T00:27:33.358Z,5.55
2019-02-11T00:28:33.362Z,5.38
2019-02-11T00:29:33.349Z,5.40
2019-02-11T00:30:34.308Z,5.33
2019-02-11T00:31:33.326Z,5.33
2019-02-11T00:32:33.310Z,5.32
2019-02-11T00:33:33.336Z,5.33
2019-02-11T00:34:33.282Z,5.29
2019-02-11T00:35:33.273Z,5.27
2019-02-11T00:36:33.267Z,5.26
2019-02-11T00:37:33.267Z,5.29
2019-02-11T00:38:33.249Z,5.22
2019-02-11T00:39:33.247Z,5.30
2019-02-11T00:40:33.219Z,5.26
2019-02-11T00:41:33.206Z,5.23
2019-02-11T00:42:33.204Z,5.32
2019-02-11T00:43:33.202Z,5.27
2019-02-11T00:44:33.217Z,5.23
2019-02-11T00:45:33.168Z,5.24
2019-02-11T00:46:33.153Z,5.26
2019-02-11T00:47:33.143Z,5.27
2019-02-11T00:48:33.129Z,5.29
2019-02-11T00:49:33.130Z,5.30
2019-02-11T00:50:33.133Z,5.33
2019-02-11T00:51:33.108Z,5.29
2019-02-11T00:52:33.085Z,5.33
2019-02-11T00:53:33.082Z,5.23
2019-02-11T00:54:33.079Z,5.22
2019-02-11T00:55:33.087Z,5.15
2019-02-11T00:56:34.047Z,5.20
2019-02-11T00:57:33.039Z,5.23
2019-02-11T00:58:33.028Z,5.15
2019-02-11T00:59:33.012Z,5.12
2019-02-11T01:00:33.003Z,5.06
2019-02-11T01:01:33.011Z,5.19
2019-02-11T01:02:32.988Z,5.06
2019-02-11T01:03:32.976Z,5.08
2019-02-11T01:04:32.963Z,5.06
2019-02-11T01:05:32.975Z,5.05
2019-02-11T01:06:32.939Z,4.94
2019-02-11T01:07:32.926Z,5.04
2019-02-11T01:08:32.943Z,4.99
2019-02-11T01:09:32.911Z,5.04
2019-02-11T01:10:32.898Z,4.91
2019-02-11T01:11:32.953Z,4.88
2019-02-11T01:12:32.882Z,4.83
2019-02-11T01:13:32.869Z,4.90
2019-02-11T01:14:32.860Z,4.84
2019-02-11T01:15:32.855Z,4.84
2019-02-11T01:16:32.915Z,4.74
2019-02-11T01:17:32.830Z,4.80
2019-02-11T01:18:32.816Z,4.67
2019-02-11T01:19:32.806Z,4.64
2019-02-11T01:20:32.791Z,4.51
2019-02-11T01:21:32.805Z,4.65
2019-02-11T01:22:32.777Z,4.68
2019-02-11T01:23:32.771Z,4.57
2019-02-11T01:24:32.749Z,4.56
2019-02-11T01:25:32.748Z,4.46
2019-02-11T01:26:32.768Z,4.54
2019-02-11T01:27:32.726Z,4.35
2019-02-11T01:28:32.717Z,4.28
2019-02-11T01:29:32.724Z,4.18
2019-02-11T01:30:32.691Z,4.25
2019-02-11T01:31:32.720Z,4.24
2019-02-11T01:32:32.688Z,4.26
2019-02-11T01:33:32.660Z,4.20
2019-02-11T01:34:32.656Z,4.24
2019-02-11T01:35:32.653Z,4.10
2019-02-11T01:36:32.641Z,4.10
2019-02-11T01:37:32.661Z,4.06
2019-02-11T01:38:32.606Z,3.95
2019-02-11T01:39:32.601Z,3.90
2019-02-11T01:40:32.611Z,3.81
2019-02-11T01:41:32.592Z,3.68
2019-02-11T01:42:32.585Z,3.59
2019-02-11T01:43:36.078Z,3.49
2019-02-11T01:44:32.562Z,3.52
2019-02-11T01:45:32.532Z,3.26
2019-02-11T01:46:32.534Z,3.26
2019-02-11T01:47:32.520Z,3.25
2019-02-11T01:48:32.510Z,3.19
2019-02-11T01:49:32.543Z,3.16
2019-02-11T01:50:32.484Z,3.20
2019-02-11T01:51:32.471Z,2.99
2019-02-11T01:52:32.463Z,3.04
2019-02-11T01:53:32.454Z,3.05
2019-02-11T01:54:32.487Z,3.04
2019-02-11T01:55:32.436Z,3.02
2019-02-11T01:56:32.441Z,2.92
2019-02-11T01:57:32.410Z,3.01
2019-02-11T01:58:32.405Z,2.81
2019-02-11T01:59:32.394Z,2.90
2019-02-11T02:00:32.461Z,2.86
2019-02-11T02:01:32.376Z,2.87
2019-02-11T02:02:32.359Z,2.90
2019-02-11T02:03:32.347Z,3.01
2019-02-11T02:04:32.337Z,2.89
2019-02-11T02:05:32.544Z,2.83
2019-02-11T02:06:32.339Z,2.74
2019-02-11T02:07:32.315Z,2.89
2019-02-11T02:08:32.301Z,2.94
2019-02-11T02:09:32.292Z,2.90
2019-02-11T02:10:32.273Z,2.95
2019-02-11T02:11:32.286Z,2.89
2019-02-11T02:12:32.258Z,2.79
2019-02-11T02:13:32.247Z,2.79
2019-02-11T02:14:32.231Z,2.80
2019-02-11T02:15:32.227Z,2.74
2019-02-11T02:16:32.229Z,2.83
2019-02-11T02:17:32.199Z,2.79
2019-02-11T02:18:32.222Z,2.80
2019-02-11T02:19:32.187Z,2.81
2019-02-11T02:20:32.175Z,2.79
2019-02-11T02:21:32.166Z,2.81
2019-02-11T02:22:32.160Z,2.80
2019-02-11T02:23:32.163Z,2.79
2019-02-11T02:24:32.127Z,2.76
2019-02-11T02:25:32.117Z,2.87
2019-02-11T02:26:32.109Z,2.87
2019-02-11T02:27:32.134Z,2.89
2019-02-11T02:28:32.101Z,2.77
2019-02-11T02:29:32.079Z,2.80
2019-02-11T02:30:32.071Z,2.77
2019-02-11T02:31:32.066Z,2.74
2019-02-11T02:32:32.120Z,2.80
2019-02-11T02:33:32.068Z,2.79
2019-02-11T02:34:32.026Z,2.65
2019-02-11T02:35:32.018Z,2.79
2019-02-11T02:36:32.003Z,2.63
2019-02-11T02:37:31.996Z,2.62
2019-02-11T02:38:32.008Z,2.62
2019-02-11T02:39:31.986Z,2.55
2019-02-11T02:40:31.967Z,2.55
2019-02-11T02:41:31.974Z,2.59
2019-02-11T02:42:31.938Z,2.45
2019-02-11T02:43:31.949Z,2.50
2019-02-11T02:44:31.946Z,2.45
2019-02-11T02:45:31.925Z,2.50
2019-02-11T02:46:31.905Z,2.45
2019-02-11T02:47:31.893Z,2.43
2019-02-11T02:48:31.882Z,2.41
2019-02-11T02:49:31.885Z,2.40
2019-02-11T02:50:31.869Z,2.33
2019-02-11T02:51:31.868Z,2.33
2019-02-11T02:52:31.843Z,2.25
2019-02-11T02:53:31.836Z,2.26
2019-02-11T02:54:31.840Z,2.19
2019-02-11T02:55:31.806Z,2.15
2019-02-11T02:56:31.806Z,2.15
2019-02-11T02:57:31.783Z,2.14
2019-02-11T02:58:31.785Z,2.15
2019-02-11T02:59:31.820Z,2.08
2019-02-11T03:00:31.754Z,2.04
2019-02-11T03:01:31.742Z,2.14
2019-02-11T03:02:31.751Z,2.08
2019-02-11T03:03:31.734Z,2.00
2019-02-11T03:04:31.717Z,2.09
2019-02-11T03:05:31.731Z,2.01
2019-02-11T03:06:31.696Z,1.95
2019-02-11T03:07:31.706Z,2.05
2019-02-11T03:08:31.671Z,1.93
2019-02-11T03:09:31.659Z,1.98
2019-02-11T03:10:31.681Z,2.00
2019-02-11T03:11:31.647Z,2.08
2019-02-11T03:12:31.655Z,2.05
2019-02-11T03:13:31.627Z,2.05
2019-02-11T03:14:31.614Z,2.12
2019-02-11T03:15:31.604Z,2.09
2019-02-11T03:16:31.603Z,2.11
2019-02-11T03:17:31.608Z,2.12
2019-02-11T03:18:31.569Z,2.12
2019-02-11T03:19:31.561Z,2.20
2019-02-11T03:20:31.576Z,2.23
2019-02-11T03:21:31.552Z,2.15
2019-02-11T03:22:31.536Z,2.14
2019-02-11T03:23:31.527Z,2.20
2019-02-11T03:24:31.518Z,2.18
2019-02-11T03:25:31.522Z,2.23
2019-02-11T03:26:31.508Z,2.09
2019-02-11T03:27:31.485Z,2.11
2019-02-11T03:28:31.480Z,2.14
2019-02-11T03:29:31.460Z,2.11
2019-02-11T03:30:31.472Z,2.14
2019-02-11T03:31:31.451Z,2.11
2019-02-11T03:32:31.430Z,2.05
2019-02-11T03:33:31.435Z,2.14
2019-02-11T03:34:31.408Z,2.12
2019-02-11T03:35:31.429Z,2.02
2019-02-11T03:36:31.390Z,2.04
2019-02-11T03:37:31.378Z,2.04
2019-02-11T03:38:31.385Z,2.05
2019-02-11T03:39:31.353Z,2.11
2019-02-11T03:40:31.369Z,2.01
2019-02-11T03:41:31.332Z,2.05
2019-02-11T03:42:31.332Z,2.05
2019-02-11T03:43:31.316Z,2.12
2019-02-11T03:44:31.327Z,2.22
2019-02-11T03:45:31.317Z,2.19
2019-02-11T03:46:31.303Z,2.25
2019-02-11T03:47:31.278Z,2.25
2019-02-11T03:48:31.273Z,2.33
2019-02-11T03:49:31.256Z,2.33
2019-02-11T03:50:31.321Z,2.41
2019-02-11T03:51:31.261Z,2.41
2019-02-11T03:52:31.233Z,2.53
2019-02-11T03:53:31.205Z,2.48
2019-02-11T03:54:31.207Z,2.51
2019-02-11T03:55:31.190Z,2.55
2019-02-11T03:56:31.193Z,2.55
2019-02-11T03:57:31.191Z,2.66
2019-02-11T03:58:31.154Z,2.65
2019-02-11T03:59:31.142Z,2.63
2019-02-11T04:00:31.135Z,2.68
2019-02-11T04:01:31.126Z,2.76
2019-02-11T04:02:31.152Z,2.81
2019-02-11T04:03:31.119Z,2.80
2019-02-11T04:04:31.179Z,2.83
2019-02-11T04:05:31.079Z,2.84
2019-02-11T04:06:31.079Z,2.87
2019-02-11T04:07:31.065Z,2.86
2019-02-11T04:08:31.076Z,2.95
2019-02-11T04:09:31.045Z,3.04
2019-02-11T04:10:31.032Z,3.08
2019-02-11T04:11:31.020Z,3.07
2019-02-11T04:12:31.016Z,3.16
2019-02-11T04:13:31.024Z,3.16
2019-02-11T04:14:30.995Z,3.19
2019-02-11T04:15:30.994Z,3.26
2019-02-11T04:16:30.983Z,3.20
2019-02-11T04:17:30.965Z,3.25
2019-02-11T04:18:30.963Z,3.35
2019-02-11T04:19:30.938Z,3.35
2019-02-11T04:20:30.930Z,3.50
2019-02-11T04:21:30.925Z,3.42
2019-02-11T04:22:30.932Z,3.57
2019-02-11T04:23:30.924Z,3.49
2019-02-11T04:24:30.884Z,3.52
2019-02-11T04:25:30.873Z,3.59
2019-02-11T04:26:30.869Z,3.71
2019-02-11T04:27:30.868Z,3.75
2019-02-11T04:28:30.867Z,3.81
2019-02-11T04:29:30.842Z,3.77
2019-02-11T04:30:30.820Z,3.72
2019-02-11T04:31:30.811Z,3.82
2019-02-11T04:32:30.802Z,3.86
2019-02-11T04:33:30.814Z,3.89
2019-02-11T04:34:30.798Z,3.82
2019-02-11T04:35:30.777Z,3.89
2019-02-11T04:36:30.769Z,3.82
2019-02-11T04:37:30.753Z,3.84
2019-02-11T04:38:30.765Z,3.98
2019-02-11T04:39:30.732Z,3.95
2019-02-11T04:40:30.738Z,3.99
2019-02-11T04:41:30.712Z,3.98
2019-02-11T04:42:30.703Z,3.98
2019-02-11T04:43:30.709Z,4.02
2019-02-11T04:44:34.058Z,4.02
2019-02-11T04:45:30.668Z,4.06
2019-02-11T04:46:30.679Z,4.04
2019-02-11T04:47:30.648Z,4.08
2019-02-11T04:48:30.641Z,4.07
2019-02-11T04:49:30.630Z,4.07
2019-02-11T04:50:30.632Z,4.18
2019-02-11T04:51:30.615Z,4.11
2019-02-11T04:52:30.615Z,4.08
2019-02-11T04:53:30.586Z,4.17
2019-02-11T04:54:30.606Z,4.18
2019-02-11T04:55:30.564Z,4.14
2019-02-11T04:56:30.567Z,4.24
2019-02-11T04:57:30.556Z,4.16
2019-02-11T04:58:30.537Z,4.16
2019-02-11T04:59:30.532Z,4.08
2019-02-11T05:00:30.521Z,4.14
2019-02-11T05:01:30.525Z,4.11
2019-02-11T05:02:30.494Z,4.10
2019-02-11T05:03:30.474Z,4.10
2019-02-11T05:04:30.467Z,4.24
2019-02-11T05:05:30.459Z,4.20
2019-02-11T05:06:30.467Z,4.25
2019-02-11T05:07:30.442Z,4.26
2019-02-11T05:08:30.463Z,4.25
2019-02-11T05:09:30.411Z,4.24
2019-02-11T05:10:30.409Z,4.26
2019-02-11T05:11:30.398Z,4.25
2019-02-11T05:12:30.407Z,4.25
2019-02-11T05:13:30.378Z,4.25
2019-02-11T05:14:30.392Z,4.28
2019-02-11T05:15:30.356Z,4.26
2019-02-11T05:16:30.342Z,4.26
2019-02-11T05:17:30.348Z,4.26
2019-02-11T05:18:30.354Z,4.24
2019-02-11T05:19:30.317Z,4.28
2019-02-11T05:20:30.309Z,4.24
2019-02-11T05:21:30.296Z,4.24
2019-02-11T05:22:30.273Z,4.21
2019-02-11T05:23:30.291Z,4.18
2019-02-11T05:24:30.259Z,4.21
2019-02-11T05:25:30.249Z,4.25
2019-02-11T05:26:30.239Z,4.31
2019-02-11T05:27:30.343Z,4.24
2019-02-11T05:28:30.217Z,4.31
2019-02-11T05:29:30.228Z,4.35
2019-02-11T05:30:30.203Z,4.34
2019-02-11T05:31:32.542Z,4.25
2019-02-11T05:32:30.182Z,4.32
2019-02-11T05:33:30.168Z,4.29
2019-02-11T05:34:30.232Z,4.31
2019-02-11T05:35:30.151Z,4.34
2019-02-11T05:36:30.132Z,4.32
2019-02-11T05:37:30.120Z,4.35
2019-02-11T05:38:30.114Z,4.21
2019-02-11T05:39:30.133Z,4.35
2019-02-11T05:40:30.088Z,4.44
2019-02-11T05:41:30.077Z,4.38
2019-02-11T05:42:30.075Z,4.29
2019-02-11T05:43:30.060Z,4.38
2019-02-11T05:44:30.335Z,4.42
2019-02-11T05:45:30.041Z,4.39
2019-02-11T05:46:30.025Z,4.42
2019-02-11T05:47:30.026Z,4.38
2019-02-11T05:48:30.021Z,4.46
2019-02-11T05:49:29.993Z,4.42
2019-02-11T05:50:30.447Z,4.42
2019-02-11T05:51:29.977Z,4.39
2019-02-11T05:52:29.968Z,4.39
2019-02-11T05:53:29.957Z,4.44
2019-02-11T05:54:29.948Z,4.36
2019-02-11T05:55:29.960Z,4.43
2019-02-11T05:56:29.926Z,4.51
2019-02-11T05:57:29.917Z,4.47
2019-02-11T05:58:29.900Z,4.47
2019-02-11T05:59:29.896Z,4.34
2019-02-11T06:00:29.893Z,4.35
2019-02-11T06:01:30.631Z,4.47
2019-02-11T06:02:29.876Z,4.43
2019-02-11T06:03:29.867Z,4.42
2019-02-11T06:04:29.845Z,4.42
2019-02-11T06:05:29.834Z,4.46
2019-02-11T06:06:29.835Z,4.39
2019-02-11T06:07:29.804Z,4.51
2019-02-11T06:08:29.793Z,4.57
2019-02-11T06:09:29.790Z,4.49
2019-02-11T06:10:29.781Z,4.49
2019-02-11T06:11:29.795Z,4.44
2019-02-11T06:12:29.761Z,4.49
2019-02-11T06:13:29.753Z,4.35
2019-02-11T06:14:29.740Z,4.43
2019-02-11T06:15:29.727Z,4.44
2019-02-11T06:16:29.734Z,4.44
2019-02-11T06:17:29.709Z,4.56
2019-02-11T06:18:29.692Z,4.50
2019-02-11T06:19:30.639Z,4.59
2019-02-11T06:20:29.673Z,4.51
2019-02-11T06:21:29.676Z,4.44
2019-02-11T06:22:29.731Z,4.49
2019-02-11T06:23:29.782Z,4.54
2019-02-11T06:24:30.145Z,4.51
2019-02-11T06:25:29.646Z,4.53
2019-02-11T06:26:29.623Z,4.51
2019-02-11T06:27:29.597Z,4.51
2019-02-11T06:28:29.594Z,4.51
2019-02-11T06:29:29.580Z,4.51
2019-02-11T06:30:29.588Z,4.62
2019-02-11T06:31:29.718Z,4.62
2019-02-11T06:32:29.775Z,4.59
2019-02-11T06:33:32.605Z,4.65
2019-02-11T06:34:50.531Z,4.64
2019-02-11T06:35:29.529Z,4.62
2019-02-11T06:36:29.515Z,4.67
2019-02-11T06:37:29.524Z,4.69
2019-02-11T06:38:29.480Z,4.69
2019-02-11T06:39:29.475Z,4.69
2019-02-11T06:40:29.466Z,4.71
2019-02-11T06:41:29.455Z,4.67
2019-02-11T06:42:29.452Z,4.74
2019-02-11T06:43:29.670Z,4.67
2019-02-11T06:44:29.419Z,4.71
2019-02-11T06:45:29.420Z,4.68
2019-02-11T06:46:29.431Z,4.69
2019-02-11T06:47:30.144Z,4.68
2019-02-11T06:48:30.175Z,4.69
2019-02-11T06:49:29.391Z,4.69
2019-02-11T06:50:29.367Z,4.71
2019-02-11T06:51:29.385Z,4.71
2019-02-11T06:52:29.336Z,4.72
2019-02-11T06:53:29.329Z,4.75
2019-02-11T06:54:29.347Z,4.74
2019-02-11T06:55:29.312Z,4.74
2019-02-11T06:56:29.298Z,4.75
2019-02-11T06:57:29.283Z,4.77
2019-02-11T06:58:29.278Z,4.77
2019-02-11T06:59:29.289Z,4.75
2019-02-11T07:00:29.262Z,4.74
2019-02-11T07:01:29.242Z,4.68
2019-02-11T07:02:29.238Z,4.83
2019-02-11T07:03:29.221Z,4.83
2019-02-11T07:04:29.699Z,4.83
2019-02-11T07:05:29.209Z,4.75
2019-02-11T07:06:29.218Z,4.77
2019-02-11T07:07:29.187Z,4.79
2019-02-11T07:08:29.178Z,4.77
2019-02-11T07:09:29.159Z,4.75
2019-02-11T07:10:29.165Z,4.79
2019-02-11T07:11:29.142Z,4.77
2019-02-11T07:12:29.149Z,4.72
2019-02-11T07:13:29.173Z,4.72
2019-02-11T07:14:29.118Z,4.75
2019-02-11T07:15:29.121Z,4.75
2019-02-11T07:16:29.085Z,4.79
2019-02-11T07:17:29.089Z,4.77
2019-02-11T07:18:29.094Z,4.75
2019-02-11T07:19:29.061Z,4.80
2019-02-11T07:20:29.053Z,4.80
2019-02-11T07:21:29.194Z,4.74
2019-02-11T07:22:29.025Z,4.79
2019-02-11T07:23:29.016Z,4.80
2019-02-11T07:24:29.019Z,4.77
2019-02-11T07:25:29.003Z,4.87
2019-02-11T07:26:28.991Z,4.97
2019-02-11T07:27:28.999Z,4.88
2019-02-11T07:28:28.989Z,4.90
2019-02-11T07:29:28.950Z,4.88
2019-02-11T07:30:28.960Z,4.97
2019-02-11T07:31:28.945Z,4.96
2019-02-11T07:32:29.942Z,5.04
2019-02-11T07:33:28.911Z,4.97
2019-02-11T07:34:28.902Z,5.08
2019-02-11T07:35:28.912Z,5.04
2019-02-11T07:36:28.887Z,5.05
2019-02-11T07:37:28.906Z,5.11
2019-02-11T07:38:28.877Z,5.11
2019-02-11T07:39:28.860Z,5.19
2019-02-11T07:40:28.854Z,5.17
2019-02-11T07:41:28.842Z,5.17
2019-02-11T07:42:28.836Z,5.12
2019-02-11T07:43:28.811Z,5.11
2019-02-11T07:44:28.812Z,5.04
2019-02-11T07:45:30.350Z,5.01
2019-02-11T07:46:28.783Z,5.02
2019-02-11T07:47:28.787Z,5.08
2019-02-11T07:48:29.645Z,4.97
2019-02-11T07:49:28.758Z,4.97
2019-02-11T07:50:28.750Z,5.04
2019-02-11T07:51:28.735Z,5.02
2019-02-11T07:52:28.725Z,4.99
2019-02-11T07:53:28.724Z,4.96
2019-02-11T07:54:28.703Z,5.01
2019-02-11T07:55:28.683Z,5.02
2019-02-11T07:56:28.681Z,4.97
2019-02-11T07:57:28.673Z,4.94
2019-02-11T07:58:28.686Z,5.02
2019-02-11T07:59:28.658Z,5.04
2019-02-11T08:00:28.643Z,4.99
2019-02-11T08:01:28.685Z,5.06
2019-02-11T08:02:28.614Z,5.08
2019-02-11T08:03:28.713Z,5.02
2019-02-11T08:04:28.603Z,4.99
2019-02-11T08:05:28.587Z,4.97
2019-02-11T08:06:28.574Z,5.04
2019-02-11T08:07:28.573Z,5.20
2019-02-11T08:08:28.574Z,5.09
2019-02-11T08:09:28.550Z,5.24
2019-02-11T08:10:28.536Z,5.30
2019-02-11T08:11:28.557Z,5.44
2019-02-11T08:12:28.520Z,5.58
2019-02-11T08:13:28.525Z,5.62
2019-02-11T08:14:28.488Z,5.58
2019-02-11T08:15:28.479Z,5.65
2019-02-11T08:16:28.476Z,5.75
2019-02-11T08:17:28.462Z,5.75
2019-02-11T08:18:28.475Z,5.67
2019-02-11T08:19:28.445Z,5.74
2019-02-11T08:20:28.426Z,5.69
2019-02-11T08:21:28.450Z,5.67
2019-02-11T08:22:28.412Z,5.69
2019-02-11T08:23:28.424Z,5.66
2019-02-11T08:24:28.390Z,5.80
2019-02-11T08:25:28.370Z,5.70
2019-02-11T08:26:28.360Z,5.78
2019-02-11T08:27:28.351Z,5.90
2019-02-11T08:28:28.360Z,6.25
2019-02-11T08:29:28.342Z,6.32
2019-02-11T08:30:28.324Z,6.42
2019-02-11T08:31:28.315Z,6.21
2019-02-11T08:32:28.318Z,6.08
2019-02-11T08:33:28.303Z,5.93
2019-02-11T08:34:28.281Z,5.81
2019-02-11T08:35:29.042Z,5.77
2019-02-11T08:36:28.269Z,5.75
2019-02-11T08:37:28.249Z,5.73
2019-02-11T08:38:28.272Z,5.66
2019-02-11T08:39:28.233Z,5.67
2019-02-11T08:40:28.214Z,5.60
2019-02-11T08:41:28.208Z,5.66
2019-02-11T08:42:28.204Z,5.59
2019-02-11T08:43:28.213Z,5.52
2019-02-11T08:44:28.183Z,5.60
2019-02-11T08:45:28.157Z,5.52
2019-02-11T08:46:28.145Z,5.58
2019-02-11T08:47:28.137Z,5.59
2019-02-11T08:48:28.151Z,5.63
2019-02-11T08:49:30.018Z,5.73
2019-02-11T08:50:28.113Z,5.69
2019-02-11T08:51:28.094Z,5.66
2019-02-11T08:52:28.107Z,5.65
2019-02-11T08:53:28.100Z,5.63
2019-02-11T08:54:28.067Z,5.62
2019-02-11T08:55:28.060Z,5.73
2019-02-11T08:56:28.052Z,5.63
2019-02-11T08:57:28.029Z,5.66
2019-02-11T08:58:28.059Z,5.55
2019-02-11T08:59:28.038Z,5.55
2019-02-11T09:00:27.998Z,5.58
2019-02-11T09:01:27.997Z,5.51
2019-02-11T09:02:27.988Z,5.56
2019-02-11T09:03:27.972Z,5.47
2019-02-11T09:04:27.974Z,5.44
2019-02-11T09:05:27.966Z,5.51
2019-02-11T09:06:27.935Z,5.49
2019-02-11T09:07:27.940Z,5.47
2019-02-11T09:08:27.927Z,5.45
2019-02-11T09:09:27.931Z,5.52
2019-02-11T09:10:27.919Z,5.55
2019-02-11T09:11:27.880Z,5.62
2019-02-11T09:12:27.874Z,5.65
2019-02-11T09:13:27.869Z,5.70
2019-02-11T09:14:27.883Z,5.70
2019-02-11T09:15:27.872Z,5.69
2019-02-11T09:16:27.854Z,5.77
2019-02-11T09:17:27.821Z,5.66
2019-02-11T09:18:27.814Z,5.69
2019-02-11T09:19:27.813Z,5.75
2019-02-11T09:20:27.833Z,5.75
2019-02-11T09:21:27.821Z,5.81
2019-02-11T09:22:27.778Z,5.83
2019-02-11T09:23:27.759Z,5.81
2019-02-11T09:24:27.753Z,5.80
2019-02-11T09:25:27.751Z,5.80
2019-02-11T09:26:27.742Z,5.74
2019-02-11T09:27:27.744Z,5.85
2019-02-11T09:28:27.716Z,5.75
2019-02-11T09:29:27.695Z,5.78
2019-02-11T09:30:27.681Z,5.78
2019-02-11T09:31:27.707Z,5.83
2019-02-11T09:32:27.702Z,5.78
2019-02-11T09:33:27.658Z,5.81
2019-02-11T09:34:27.701Z,5.87
2019-02-11T09:35:27.636Z,5.84
2019-02-11T09:36:27.627Z,5.85
2019-02-11T09:37:27.605Z,5.95
2019-02-11T09:38:27.616Z,5.95
2019-02-11T09:39:27.601Z,5.95
2019-02-11T09:40:27.578Z,6.05
2019-02-11T09:41:27.575Z,6.06
2019-02-11T09:42:27.547Z,6.14
2019-02-11T09:43:27.567Z,6.16
2019-02-11T09:44:29.754Z,6.16
2019-02-11T09:45:27.525Z,6.24
2019-02-11T09:46:27.515Z,6.19
2019-02-11T09:47:27.521Z,6.19
2019-02-11T09:48:27.526Z,6.19
2019-02-11T09:49:27.489Z,6.16
2019-02-11T09:50:27.464Z,6.16
2019-02-11T09:51:27.460Z,6.19
2019-02-11T09:52:27.452Z,6.17
2019-02-11T09:53:27.462Z,6.13
2019-02-11T09:54:27.447Z,6.21
2019-02-11T09:55:27.430Z,6.28
2019-02-11T09:56:27.423Z,6.21
2019-02-11T09:57:27.400Z,6.20
2019-02-11T09:58:27.416Z,6.17
2019-02-11T09:59:27.380Z,6.32
2019-02-11T10:00:27.387Z,6.35
2019-02-11T10:01:27.368Z,6.38
2019-02-11T10:02:27.356Z,6.43
2019-02-11T10:03:27.361Z,6.33
2019-02-11T10:04:27.316Z,6.30
2019-02-11T10:05:27.316Z,6.25
2019-02-11T10:06:27.317Z,6.20
2019-02-11T10:07:27.310Z,6.24
2019-02-11T10:08:27.375Z,6.17
2019-02-11T10:09:27.280Z,6.17
2019-02-11T10:10:27.253Z,6.24
2019-02-11T10:11:27.255Z,6.13
2019-02-11T10:12:27.254Z,6.17
2019-02-11T10:13:27.228Z,6.11
2019-02-11T10:14:27.238Z,6.08
2019-02-11T10:15:27.204Z,6.14
2019-02-11T10:16:27.192Z,6.06
2019-02-11T10:17:29.879Z,6.11
2019-02-11T10:18:27.192Z,6.13
2019-02-11T10:19:27.230Z,6.13
2019-02-11T10:20:27.156Z,6.20
2019-02-11T10:21:27.140Z,6.17
2019-02-11T10:22:27.130Z,6.20
2019-02-11T10:23:27.139Z,6.28
2019-02-11T10:24:27.139Z,6.28
2019-02-11T10:25:27.102Z,6.28
2019-02-11T10:26:27.105Z,6.33
2019-02-11T10:27:27.078Z,6.33
2019-02-11T10:28:27.067Z,6.35
2019-02-11T10:29:27.076Z,6.45
2019-02-11T10:30:27.064Z,6.33
2019-02-11T10:31:27.044Z,6.35
2019-02-11T10:32:27.044Z,6.25
2019-02-11T10:33:27.016Z,6.25
2019-02-11T10:34:27.042Z,6.30
2019-02-11T10:35:27.008Z,6.30
2019-02-11T10:36:26.978Z,6.33
2019-02-11T10:37:26.975Z,6.33
2019-02-11T10:38:27.673Z,6.39
2019-02-11T10:39:26.959Z,6.38
2019-02-11T10:40:26.983Z,6.36
2019-02-11T10:41:26.955Z,6.33
2019-02-11T10:42:26.917Z,6.32
2019-02-11T10:43:26.923Z,6.35
2019-02-11T10:44:26.908Z,6.36
2019-02-11T10:45:26.889Z,6.42
2019-02-11T10:46:26.898Z,6.39
2019-02-11T10:47:26.897Z,6.42
2019-02-11T10:48:26.855Z,6.46
2019-02-11T10:49:26.854Z,6.76
2019-02-11T10:50:26.844Z,6.91
2019-02-11T10:51:26.859Z,7.19
2019-02-11T10:52:26.830Z,7.15
2019-02-11T10:53:26.832Z,7.27
2019-02-11T10:54:26.790Z,7.30
2019-02-11T10:55:26.782Z,7.19
2019-02-11T10:56:26.791Z,7.16
2019-02-11T10:57:26.763Z,7.19
2019-02-11T10:58:26.789Z,7.12
2019-02-11T10:59:26.735Z,7.05
2019-02-11T11:00:26.724Z,7.07
2019-02-11T11:01:26.744Z,6.94
2019-02-11T11:02:26.719Z,6.91
2019-02-11T11:03:26.697Z,6.94
2019-02-11T11:04:26.695Z,7.00
2019-02-11T11:05:26.700Z,7.12
2019-02-11T11:06:26.683Z,7.12
2019-02-11T11:07:26.649Z,7.16
2019-02-11T11:08:26.637Z,7.18
2019-02-11T11:09:26.707Z,7.21
2019-02-11T11:10:26.640Z,7.24
2019-02-11T11:11:26.614Z,7.19
2019-02-11T11:12:26.605Z,7.24
2019-02-11T11:13:26.621Z,7.12
2019-02-11T11:14:26.600Z,7.16
2019-02-11T11:15:26.571Z,7.08
2019-02-11T11:16:29.716Z,6.94
2019-02-11T11:17:27.195Z,6.87
2019-02-11T11:18:26.529Z,6.76
2019-02-11T11:19:26.528Z,6.91
2019-02-11T11:20:26.512Z,6.97
2019-02-11T11:21:26.550Z,6.99
2019-02-11T11:22:26.507Z,6.91
2019-02-11T11:23:26.489Z,7.19
2019-02-11T11:24:26.478Z,7.14
2019-02-11T11:25:26.460Z,7.11
2019-02-11T11:26:26.447Z,7.07
2019-02-11T11:27:26.458Z,6.94
2019-02-11T11:28:26.453Z,6.81
2019-02-11T11:29:26.421Z,6.87
2019-02-11T11:30:26.411Z,6.87
2019-02-11T11:31:26.393Z,6.86
2019-02-11T11:32:26.415Z,6.90
2019-02-11T11:33:26.389Z,6.91
2019-02-11T11:34:26.399Z,6.97
2019-02-11T11:35:26.362Z,6.90
2019-02-11T11:36:26.357Z,7.12
2019-02-11T11:37:26.367Z,7.16
2019-02-11T11:38:26.347Z,7.45
2019-02-11T11:39:26.347Z,7.52
2019-02-11T11:40:26.299Z,7.58
2019-02-11T11:41:26.297Z,7.47
2019-02-11T11:42:26.288Z,7.39
2019-02-11T11:43:26.273Z,7.34
2019-02-11T11:44:26.292Z,7.33
2019-02-11T11:45:27.839Z,7.15
2019-02-11T11:46:26.236Z,7.19
2019-02-11T11:47:26.252Z,7.12
2019-02-11T11:48:26.231Z,7.12
2019-02-11T11:49:26.203Z,7.15
2019-02-11T11:50:26.241Z,7.16
2019-02-11T11:51:26.191Z,7.09
2019-02-11T11:52:26.173Z,7.07
2019-02-11T11:53:26.171Z,6.94
2019-02-11T11:54:26.708Z,7.00
2019-02-11T11:55:26.167Z,6.93
2019-02-11T11:56:26.160Z,6.89
2019-02-11T11:57:26.130Z,6.90
2019-02-11T11:58:27.163Z,6.94
2019-02-11T11:59:26.112Z,6.89
2019-02-11T12:00:26.088Z,6.83
2019-02-11T12:01:26.102Z,6.82
2019-02-11T12:02:26.105Z,6.76
2019-02-11T12:03:26.058Z,6.78
2019-02-11T12:04:26.048Z,6.90
2019-02-11T12:05:26.046Z,6.87
2019-02-11T12:06:26.031Z,6.90
2019-02-11T12:07:26.063Z,6.94
2019-02-11T12:08:26.028Z,7.08
2019-02-11T12:09:25.992Z,7.11
2019-02-11T12:10:26.000Z,7.15
2019-02-11T12:11:25.976Z,7.09
2019-02-11T12:12:25.963Z,7.16
2019-02-11T12:13:26.000Z,7.18
2019-02-11T12:14:25.949Z,7.08
2019-02-11T12:15:25.950Z,6.99
2019-02-11T12:16:25.931Z,6.96
2019-02-11T12:17:25.918Z,6.87
2019-02-11T12:18:25.920Z,6.81
2019-02-11T12:19:25.909Z,6.78
2019-02-11T12:20:25.916Z,6.82
2019-02-11T12:21:25.884Z,6.79
2019-02-11T12:22:25.875Z,6.89
2019-02-11T12:23:26.244Z,6.79
2019-02-11T12:24:25.896Z,6.90
2019-02-11T12:25:25.849Z,6.96
2019-02-11T12:26:25.925Z,6.91
2019-02-11T12:27:25.824Z,7.00
2019-02-11T12:28:25.908Z,6.91
2019-02-11T12:29:25.802Z,6.90
2019-02-11T12:30:25.797Z,6.94
2019-02-11T12:31:25.782Z,6.79
2019-02-11T12:32:25.753Z,6.78
2019-02-11T12:33:25.776Z,6.76
2019-02-11T12:34:25.744Z,6.76
2019-02-11T12:35:25.727Z,6.78
2019-02-11T12:36:25.719Z,6.72
2019-02-11T12:37:25.720Z,6.75
2019-02-11T12:38:25.712Z,6.83
2019-02-11T12:39:25.786Z,6.81
2019-02-11T12:40:25.795Z,6.86
2019-02-11T12:41:25.676Z,6.78
2019-02-11T12:42:25.662Z,6.90
2019-02-11T12:43:25.666Z,6.87
2019-02-11T12:44:25.686Z,6.81
2019-02-11T12:45:25.699Z,6.82
2019-02-11T12:46:25.622Z,7.52
2019-02-11T12:47:25.609Z,7.82
2019-02-11T12:48:25.603Z,7.52
2019-02-11T12:49:25.669Z,7.37
2019-02-11T12:50:25.610Z,8.24
2019-02-11T12:51:25.576Z,7.95
2019-02-11T12:52:25.623Z,9.50
2019-02-11T12:53:26.251Z,9.23
2019-02-11T12:54:25.544Z,8.27
2019-02-11T12:55:25.584Z,9.55
2019-02-11T12:56:25.505Z,8.76
2019-02-11T12:57:25.521Z,8.21
2019-02-11T12:58:25.489Z,9.32
2019-02-11T12:59:25.526Z,8.96
2019-02-11T13:00:25.520Z,8.76
2019-02-11T13:01:25.454Z,8.18
2019-02-11T13:02:25.464Z,7.81
2019-02-11T13:03:25.459Z,7.47
2019-02-11T13:04:25.427Z,7.29
2019-02-11T13:05:43.260Z,7.15
2019-02-11T13:06:26.447Z,7.32
2019-02-11T13:07:25.392Z,7.33
2019-02-11T13:08:25.388Z,7.19
2019-02-11T13:09:25.412Z,7.14
2019-02-11T13:10:25.375Z,7.23
2019-02-11T13:11:25.439Z,7.30
2019-02-11T13:12:25.372Z,7.19
2019-02-11T13:13:25.356Z,7.34
2019-02-11T13:14:25.337Z,7.42
2019-02-11T13:15:57.718Z,7.33
2019-02-11T13:16:26.335Z,7.42
2019-02-11T13:17:33.857Z,7.39
2019-02-11T13:18:26.532Z,7.82